sensor_id;sensor_type;location;lat;lon;timestamp;P1;durP1;ratioP1;P2;durP2;ratioP2
30681;SDS011;17439;48.092;11.842;2022-07-30T00:01:13;1.50;;;0.70;;
30681;SDS011;17439;48.092;11.842;2022-07-30T00:03:40;2.17;;;0.82;;
30681;SDS011;17439;48.092;11.842;2022-07-30T00:06:06;1.45;;;0.65;;
30681;SDS011;17439;48.092;11.842;2022-07-30T00:08:33;2.17;;;0.82;;
30681;SDS011;17439;48.092;11.842;2022-07-30T00:11:00;1.40;;;0.85;;
30681;SDS011;17439;48.092;11.842;2022-07-30T00:13:26;2.67;;;0.90;;
30681;SDS011;17439;48.092;11.842;2022-07-30T00:15:53;1.10;;;0.80;;
30681;SDS011;17439;48.092;11.842;2022-07-30T00:18:20;1.00;;;0.90;;
30681;SDS011;17439;48.092;11.842;2022-07-30T00:20:47;1.52;;;0.60;;
30681;SDS011;17439;48.092;11.842;2022-07-30T00:23:15;0.82;;;0.82;;
30681;SDS011;17439;48.092;11.842;2022-07-30T00:25:42;1.17;;;0.93;;
30681;SDS011;17439;48.092;11.842;2022-07-30T00:28:09;3.47;;;0.80;;
30681;SDS011;17439;48.092;11.842;2022-07-30T00:30:35;2.55;;;0.70;;
30681;SDS011;17439;48.092;11.842;2022-07-30T00:33:02;2.45;;;0.93;;
30681;SDS011;17439;48.092;11.842;2022-07-30T00:35:29;0.80;;;0.80;;
30681;SDS011;17439;48.092;11.842;2022-07-30T00:37:55;2.42;;;0.95;;
30681;SDS011;17439;48.092;11.842;2022-07-30T00:40:22;1.48;;;1.02;;
30681;SDS011;17439;48.092;11.842;2022-07-30T00:42:49;1.10;;;0.85;;
30681;SDS011;17439;48.092;11.842;2022-07-30T00:45:16;1.25;;;1.00;;
30681;SDS011;17439;48.092;11.842;2022-07-30T00:47:43;1.20;;;0.77;;
30681;SDS011;17439;48.092;11.842;2022-07-30T00:50:11;1.80;;;0.90;;
30681;SDS011;17439;48.092;11.842;2022-07-30T00:52:39;1.27;;;1.08;;
30681;SDS011;17439;48.092;11.842;2022-07-30T00:55:07;2.97;;;1.00;;
30681;SDS011;17439;48.092;11.842;2022-07-30T00:57:35;0.70;;;0.70;;
30681;SDS011;17439;48.092;11.842;2022-07-30T01:00:05;0.80;;;0.75;;
30681;SDS011;17439;48.092;11.842;2022-07-30T01:02:34;2.53;;;0.90;;
30681;SDS011;17439;48.092;11.842;2022-07-30T01:05:01;1.30;;;1.02;;
30681;SDS011;17439;48.092;11.842;2022-07-30T01:07:28;1.33;;;1.15;;
30681;SDS011;17439;48.092;11.842;2022-07-30T01:09:54;1.30;;;0.90;;
30681;SDS011;17439;48.092;11.842;2022-07-30T01:12:22;1.45;;;0.90;;
30681;SDS011;17439;48.092;11.842;2022-07-30T01:14:51;1.88;;;0.80;;
30681;SDS011;17439;48.092;11.842;2022-07-30T01:17:18;1.13;;;0.63;;
30681;SDS011;17439;48.092;11.842;2022-07-30T01:19:45;1.83;;;0.80;;
30681;SDS011;17439;48.092;11.842;2022-07-30T01:27:33;2.67;;;0.90;;
30681;SDS011;17439;48.092;11.842;2022-07-30T01:30:04;3.63;;;1.00;;
30681;SDS011;17439;48.092;11.842;2022-07-30T01:32:32;2.20;;;0.77;;
30681;SDS011;17439;48.092;11.842;2022-07-30T01:35:00;1.60;;;0.75;;
30681;SDS011;17439;48.092;11.842;2022-07-30T01:37:29;1.75;;;0.90;;
30681;SDS011;17439;48.092;11.842;2022-07-30T01:39:57;1.90;;;0.82;;
30681;SDS011;17439;48.092;11.842;2022-07-30T01:44:53;2.22;;;0.70;;
30681;SDS011;17439;48.092;11.842;2022-07-30T01:47:22;1.42;;;0.82;;
30681;SDS011;17439;48.092;11.842;2022-07-30T01:49:50;1.20;;;1.00;;
30681;SDS011;17439;48.092;11.842;2022-07-30T01:52:20;1.73;;;1.00;;
30681;SDS011;17439;48.092;11.842;2022-07-30T01:54:49;1.40;;;0.70;;
30681;SDS011;17439;48.092;11.842;2022-07-30T01:57:18;4.50;;;0.80;;
30681;SDS011;17439;48.092;11.842;2022-07-30T01:59:47;3.83;;;0.90;;
30681;SDS011;17439;48.092;11.842;2022-07-30T02:02:17;1.80;;;0.80;;
30681;SDS011;17439;48.092;11.842;2022-07-30T02:04:44;1.88;;;1.00;;
30681;SDS011;17439;48.092;11.842;2022-07-30T02:07:13;1.00;;;0.70;;
30681;SDS011;17439;48.092;11.842;2022-07-30T02:09:53;1.17;;;0.85;;
30681;SDS011;17439;48.092;11.842;2022-07-30T02:12:25;3.53;;;0.80;;
30681;SDS011;17439;48.092;11.842;2022-07-30T02:17:43;1.23;;;1.00;;
30681;SDS011;17439;48.092;11.842;2022-07-30T02:20:20;1.63;;;0.60;;
30681;SDS011;17439;48.092;11.842;2022-07-30T02:22:54;1.50;;;0.80;;
30681;SDS011;17439;48.092;11.842;2022-07-30T02:25:25;0.73;;;0.70;;
30681;SDS011;17439;48.092;11.842;2022-07-30T02:27:55;1.00;;;0.80;;
30681;SDS011;17439;48.092;11.842;2022-07-30T02:30:26;1.98;;;0.70;;
30681;SDS011;17439;48.092;11.842;2022-07-30T02:32:58;2.30;;;1.13;;
30681;SDS011;17439;48.092;11.842;2022-07-30T02:35:28;0.90;;;0.60;;
30681;SDS011;17439;48.092;11.842;2022-07-30T02:37:58;1.13;;;0.73;;
30681;SDS011;17439;48.092;11.842;2022-07-30T02:40:28;1.52;;;0.93;;
30681;SDS011;17439;48.092;11.842;2022-07-30T02:42:55;1.08;;;0.93;;
30681;SDS011;17439;48.092;11.842;2022-07-30T02:45:25;1.45;;;0.93;;
30681;SDS011;17439;48.092;11.842;2022-07-30T02:47:55;1.38;;;1.05;;
30681;SDS011;17439;48.092;11.842;2022-07-30T02:50:26;0.68;;;0.68;;
30681;SDS011;17439;48.092;11.842;2022-07-30T02:52:53;2.22;;;1.10;;
30681;SDS011;17439;48.092;11.842;2022-07-30T02:55:23;1.20;;;0.70;;
30681;SDS011;17439;48.092;11.842;2022-07-30T02:57:51;1.40;;;1.15;;
30681;SDS011;17439;48.092;11.842;2022-07-30T03:00:19;1.17;;;0.70;;
30681;SDS011;17439;48.092;11.842;2022-07-30T03:02:48;3.53;;;0.90;;
30681;SDS011;17439;48.092;11.842;2022-07-30T03:05:22;1.63;;;0.82;;
30681;SDS011;17439;48.092;11.842;2022-07-30T03:07:53;1.48;;;1.00;;
30681;SDS011;17439;48.092;11.842;2022-07-30T03:10:21;1.20;;;1.10;;
30681;SDS011;17439;48.092;11.842;2022-07-30T03:12:51;2.17;;;1.00;;
30681;SDS011;17439;48.092;11.842;2022-07-30T03:17:48;2.28;;;0.80;;
30681;SDS011;17439;48.092;11.842;2022-07-30T03:20:17;1.25;;;1.00;;
30681;SDS011;17439;48.092;11.842;2022-07-30T03:22:50;1.20;;;1.10;;
30681;SDS011;17439;48.092;11.842;2022-07-30T03:25:22;2.42;;;0.85;;
30681;SDS011;17439;48.092;11.842;2022-07-30T03:27:53;1.45;;;0.73;;
30681;SDS011;17439;48.092;11.842;2022-07-30T03:30:21;1.52;;;0.98;;
30681;SDS011;17439;48.092;11.842;2022-07-30T03:32:51;1.15;;;0.73;;
30681;SDS011;17439;48.092;11.842;2022-07-30T03:35:19;3.28;;;0.85;;
30681;SDS011;17439;48.092;11.842;2022-07-30T03:37:47;1.30;;;0.77;;
30681;SDS011;17439;48.092;11.842;2022-07-30T03:40:14;3.27;;;0.90;;
30681;SDS011;17439;48.092;11.842;2022-07-30T03:42:41;2.40;;;1.00;;
30681;SDS011;17439;48.092;11.842;2022-07-30T03:45:11;3.78;;;1.00;;
30681;SDS011;17439;48.092;11.842;2022-07-30T03:47:38;0.93;;;0.90;;
30681;SDS011;17439;48.092;11.842;2022-07-30T03:50:06;1.45;;;1.05;;
30681;SDS011;17439;48.092;11.842;2022-07-30T03:52:36;2.05;;;1.45;;
30681;SDS011;17439;48.092;11.842;2022-07-30T03:55:09;2.75;;;1.02;;
30681;SDS011;17439;48.092;11.842;2022-07-30T03:57:37;1.23;;;0.95;;
30681;SDS011;17439;48.092;11.842;2022-07-30T04:00:05;4.43;;;1.27;;
30681;SDS011;17439;48.092;11.842;2022-07-30T04:02:42;1.65;;;1.10;;
30681;SDS011;17439;48.092;11.842;2022-07-30T04:05:25;1.60;;;0.93;;
30681;SDS011;17439;48.092;11.842;2022-07-30T04:07:54;1.50;;;1.05;;
30681;SDS011;17439;48.092;11.842;2022-07-30T04:10:22;2.20;;;1.05;;
30681;SDS011;17439;48.092;11.842;2022-07-30T04:13:09;4.73;;;1.13;;
30681;SDS011;17439;48.092;11.842;2022-07-30T04:15:38;2.37;;;1.37;;
30681;SDS011;17439;48.092;11.842;2022-07-30T04:18:32;2.38;;;1.17;;
30681;SDS011;17439;48.092;11.842;2022-07-30T04:21:05;4.18;;;1.23;;
30681;SDS011;17439;48.092;11.842;2022-07-30T04:23:46;2.45;;;0.98;;
30681;SDS011;17439;48.092;11.842;2022-07-30T04:26:31;3.92;;;1.17;;
30681;SDS011;17439;48.092;11.842;2022-07-30T04:29:00;2.75;;;1.20;;
30681;SDS011;17439;48.092;11.842;2022-07-30T04:34:02;1.40;;;1.00;;
30681;SDS011;17439;48.092;11.842;2022-07-30T04:36:37;2.67;;;1.50;;
30681;SDS011;17439;48.092;11.842;2022-07-30T04:39:04;4.00;;;0.98;;
30681;SDS011;17439;48.092;11.842;2022-07-30T04:41:31;3.42;;;1.10;;
30681;SDS011;17439;48.092;11.842;2022-07-30T04:44:31;4.68;;;1.48;;
30681;SDS011;17439;48.092;11.842;2022-07-30T04:47:17;2.95;;;1.20;;
30681;SDS011;17439;48.092;11.842;2022-07-30T04:49:56;3.80;;;1.42;;
30681;SDS011;17439;48.092;11.842;2022-07-30T04:52:23;1.98;;;1.45;;
30681;SDS011;17439;48.092;11.842;2022-07-30T04:54:53;4.10;;;1.60;;
30681;SDS011;17439;48.092;11.842;2022-07-30T04:57:23;2.30;;;1.50;;
30681;SDS011;17439;48.092;11.842;2022-07-30T04:59:52;3.25;;;1.40;;
30681;SDS011;17439;48.092;11.842;2022-07-30T05:02:19;2.70;;;1.25;;
30681;SDS011;17439;48.092;11.842;2022-07-30T05:04:49;4.15;;;1.30;;
30681;SDS011;17439;48.092;11.842;2022-07-30T05:09:48;1.70;;;1.48;;
30681;SDS011;17439;48.092;11.842;2022-07-30T05:12:14;2.42;;;1.55;;
30681;SDS011;17439;48.092;11.842;2022-07-30T05:14:41;2.50;;;1.48;;
30681;SDS011;17439;48.092;11.842;2022-07-30T05:17:14;2.67;;;1.20;;
30681;SDS011;17439;48.092;11.842;2022-07-30T05:19:40;1.92;;;1.58;;
30681;SDS011;17439;48.092;11.842;2022-07-30T05:22:07;1.73;;;1.52;;
30681;SDS011;17439;48.092;11.842;2022-07-30T05:24:35;2.13;;;1.50;;
30681;SDS011;17439;48.092;11.842;2022-07-30T05:27:02;3.42;;;1.92;;
30681;SDS011;17439;48.092;11.842;2022-07-30T05:29:29;3.97;;;1.60;;
30681;SDS011;17439;48.092;11.842;2022-07-30T05:32:07;2.83;;;1.40;;
30681;SDS011;17439;48.092;11.842;2022-07-30T05:34:34;4.07;;;1.80;;
30681;SDS011;17439;48.092;11.842;2022-07-30T05:37:01;1.95;;;1.42;;
30681;SDS011;17439;48.092;11.842;2022-07-30T05:39:29;2.15;;;1.73;;
30681;SDS011;17439;48.092;11.842;2022-07-30T05:42:30;2.38;;;1.55;;
30681;SDS011;17439;48.092;11.842;2022-07-30T05:44:57;3.67;;;1.90;;
30681;SDS011;17439;48.092;11.842;2022-07-30T05:47:23;2.67;;;1.75;;
30681;SDS011;17439;48.092;11.842;2022-07-30T05:49:50;2.40;;;1.50;;
30681;SDS011;17439;48.092;11.842;2022-07-30T05:52:17;2.08;;;1.88;;
30681;SDS011;17439;48.092;11.842;2022-07-30T05:54:44;2.10;;;1.40;;
30681;SDS011;17439;48.092;11.842;2022-07-30T05:57:34;3.20;;;1.55;;
30681;SDS011;17439;48.092;11.842;2022-07-30T06:00:03;3.13;;;1.98;;
30681;SDS011;17439;48.092;11.842;2022-07-30T06:02:47;2.83;;;1.88;;
30681;SDS011;17439;48.092;11.842;2022-07-30T06:05:32;3.17;;;1.83;;
30681;SDS011;17439;48.092;11.842;2022-07-30T06:08:00;5.10;;;1.60;;
30681;SDS011;17439;48.092;11.842;2022-07-30T06:10:29;2.92;;;1.60;;
30681;SDS011;17439;48.092;11.842;2022-07-30T06:12:57;2.88;;;1.85;;
30681;SDS011;17439;48.092;11.842;2022-07-30T06:15:24;1.98;;;1.65;;
30681;SDS011;17439;48.092;11.842;2022-07-30T06:17:52;5.20;;;2.40;;
30681;SDS011;17439;48.092;11.842;2022-07-30T06:20:48;2.97;;;1.88;;
30681;SDS011;17439;48.092;11.842;2022-07-30T06:23:24;2.33;;;1.80;;
30681;SDS011;17439;48.092;11.842;2022-07-30T06:26:09;2.75;;;1.73;;
30681;SDS011;17439;48.092;11.842;2022-07-30T06:28:35;3.53;;;1.85;;
30681;SDS011;17439;48.092;11.842;2022-07-30T06:31:13;2.92;;;1.85;;
30681;SDS011;17439;48.092;11.842;2022-07-30T06:33:40;2.75;;;1.80;;
30681;SDS011;17439;48.092;11.842;2022-07-30T06:36:07;3.70;;;1.80;;
30681;SDS011;17439;48.092;11.842;2022-07-30T06:39:05;5.28;;;1.77;;
30681;SDS011;17439;48.092;11.842;2022-07-30T06:41:55;2.35;;;2.00;;
30681;SDS011;17439;48.092;11.842;2022-07-30T06:44:25;3.58;;;1.70;;
30681;SDS011;17439;48.092;11.842;2022-07-30T06:47:11;2.35;;;1.60;;
30681;SDS011;17439;48.092;11.842;2022-07-30T06:49:40;2.58;;;1.98;;
30681;SDS011;17439;48.092;11.842;2022-07-30T06:52:08;4.70;;;1.83;;
30681;SDS011;17439;48.092;11.842;2022-07-30T06:54:37;4.97;;;1.83;;
30681;SDS011;17439;48.092;11.842;2022-07-30T06:57:13;4.20;;;2.30;;
30681;SDS011;17439;48.092;11.842;2022-07-30T06:59:41;11.10;;;2.50;;
30681;SDS011;17439;48.092;11.842;2022-07-30T07:02:34;2.05;;;1.80;;
30681;SDS011;17439;48.092;11.842;2022-07-30T07:05:06;4.32;;;1.88;;
30681;SDS011;17439;48.092;11.842;2022-07-30T07:07:33;7.03;;;2.33;;
30681;SDS011;17439;48.092;11.842;2022-07-30T07:10:10;3.17;;;2.50;;
30681;SDS011;17439;48.092;11.842;2022-07-30T07:12:59;7.22;;;2.80;;
30681;SDS011;17439;48.092;11.842;2022-07-30T07:15:27;3.28;;;2.58;;
30681;SDS011;17439;48.092;11.842;2022-07-30T07:18:05;2.70;;;2.10;;
30681;SDS011;17439;48.092;11.842;2022-07-30T07:20:35;5.68;;;2.15;;
30681;SDS011;17439;48.092;11.842;2022-07-30T07:23:04;6.82;;;2.72;;
30681;SDS011;17439;48.092;11.842;2022-07-30T07:25:37;5.47;;;2.78;;
30681;SDS011;17439;48.092;11.842;2022-07-30T07:28:03;5.93;;;2.85;;
30681;SDS011;17439;48.092;11.842;2022-07-30T07:30:39;6.90;;;2.85;;
30681;SDS011;17439;48.092;11.842;2022-07-30T07:35:33;4.25;;;2.67;;
30681;SDS011;17439;48.092;11.842;2022-07-30T07:38:16;5.20;;;3.08;;
30681;SDS011;17439;48.092;11.842;2022-07-30T07:40:44;4.03;;;2.90;;
30681;SDS011;17439;48.092;11.842;2022-07-30T07:43:11;5.50;;;3.60;;
30681;SDS011;17439;48.092;11.842;2022-07-30T07:45:38;3.75;;;3.00;;
30681;SDS011;17439;48.092;11.842;2022-07-30T07:50:53;5.18;;;3.80;;
30681;SDS011;17439;48.092;11.842;2022-07-30T07:53:27;9.57;;;4.18;;
30681;SDS011;17439;48.092;11.842;2022-07-30T07:55:55;3.75;;;2.85;;
30681;SDS011;17439;48.092;11.842;2022-07-30T07:58:23;5.38;;;3.13;;
30681;SDS011;17439;48.092;11.842;2022-07-30T08:00:54;3.58;;;3.05;;
30681;SDS011;17439;48.092;11.842;2022-07-30T08:03:30;4.35;;;3.20;;
30681;SDS011;17439;48.092;11.842;2022-07-30T08:06:01;4.10;;;3.00;;
30681;SDS011;17439;48.092;11.842;2022-07-30T08:08:50;7.43;;;3.58;;
30681;SDS011;17439;48.092;11.842;2022-07-30T08:11:46;7.68;;;4.00;;
30681;SDS011;17439;48.092;11.842;2022-07-30T08:14:36;5.63;;;3.35;;
30681;SDS011;17439;48.092;11.842;2022-07-30T08:17:21;11.65;;;4.22;;
30681;SDS011;17439;48.092;11.842;2022-07-30T08:20:11;10.50;;;4.18;;
30681;SDS011;17439;48.092;11.842;2022-07-30T08:22:38;5.15;;;3.70;;
30681;SDS011;17439;48.092;11.842;2022-07-30T08:25:06;4.40;;;3.17;;
30681;SDS011;17439;48.092;11.842;2022-07-30T08:30:04;6.03;;;4.13;;
30681;SDS011;17439;48.092;11.842;2022-07-30T08:32:32;5.93;;;3.78;;
30681;SDS011;17439;48.092;11.842;2022-07-30T08:34:59;5.25;;;4.25;;
30681;SDS011;17439;48.092;11.842;2022-07-30T08:37:26;8.77;;;3.72;;
30681;SDS011;17439;48.092;11.842;2022-07-30T08:39:52;8.10;;;3.55;;
30681;SDS011;17439;48.092;11.842;2022-07-30T08:42:19;5.93;;;4.10;;
30681;SDS011;17439;48.092;11.842;2022-07-30T08:44:47;8.13;;;3.45;;
30681;SDS011;17439;48.092;11.842;2022-07-30T08:47:16;5.50;;;3.30;;
30681;SDS011;17439;48.092;11.842;2022-07-30T08:50:08;6.40;;;3.83;;
30681;SDS011;17439;48.092;11.842;2022-07-30T08:52:44;4.80;;;3.67;;
30681;SDS011;17439;48.092;11.842;2022-07-30T08:55:11;6.15;;;3.50;;
30681;SDS011;17439;48.092;11.842;2022-07-30T08:57:38;4.97;;;3.20;;
30681;SDS011;17439;48.092;11.842;2022-07-30T09:00:05;4.63;;;2.80;;
30681;SDS011;17439;48.092;11.842;2022-07-30T09:02:33;4.10;;;3.22;;
30681;SDS011;17439;48.092;11.842;2022-07-30T09:05:03;4.35;;;3.10;;
30681;SDS011;17439;48.092;11.842;2022-07-30T09:07:32;5.68;;;3.17;;
30681;SDS011;17439;48.092;11.842;2022-07-30T09:10:00;11.85;;;3.80;;
30681;SDS011;17439;48.092;11.842;2022-07-30T09:15:03;4.85;;;2.58;;
30681;SDS011;17439;48.092;11.842;2022-07-30T09:17:48;4.40;;;2.80;;
30681;SDS011;17439;48.092;11.842;2022-07-30T09:20:15;5.05;;;2.72;;
30681;SDS011;17439;48.092;11.842;2022-07-30T09:23:01;4.32;;;2.60;;
30681;SDS011;17439;48.092;11.842;2022-07-30T09:25:49;4.07;;;2.40;;
30681;SDS011;17439;48.092;11.842;2022-07-30T09:28:34;2.97;;;2.15;;
30681;SDS011;17439;48.092;11.842;2022-07-30T09:31:13;5.55;;;2.33;;
30681;SDS011;17439;48.092;11.842;2022-07-30T09:34:04;4.03;;;2.35;;
30681;SDS011;17439;48.092;11.842;2022-07-30T09:39:56;8.27;;;2.97;;
30681;SDS011;17439;48.092;11.842;2022-07-30T09:43:09;5.35;;;2.10;;
30681;SDS011;17439;48.092;11.842;2022-07-30T09:45:52;3.08;;;2.22;;
30681;SDS011;17439;48.092;11.842;2022-07-30T09:48:24;4.65;;;2.05;;
30681;SDS011;17439;48.092;11.842;2022-07-30T09:50:53;3.58;;;1.63;;
30681;SDS011;17439;48.092;11.842;2022-07-30T09:53:23;3.25;;;1.95;;
30681;SDS011;17439;48.092;11.842;2022-07-30T09:55:50;3.92;;;2.50;;
30681;SDS011;17439;48.092;11.842;2022-07-30T09:58:18;5.60;;;2.75;;
30681;SDS011;17439;48.092;11.842;2022-07-30T10:00:57;4.45;;;2.00;;
30681;SDS011;17439;48.092;11.842;2022-07-30T10:03:54;5.10;;;2.00;;
30681;SDS011;17439;48.092;11.842;2022-07-30T10:06:31;5.20;;;2.53;;
30681;SDS011;17439;48.092;11.842;2022-07-30T10:09:23;7.72;;;2.30;;
30681;SDS011;17439;48.092;11.842;2022-07-30T10:11:54;7.80;;;2.47;;
30681;SDS011;17439;48.092;11.842;2022-07-30T10:14:27;2.25;;;1.73;;
30681;SDS011;17439;48.092;11.842;2022-07-30T10:16:59;2.50;;;1.83;;
30681;SDS011;17439;48.092;11.842;2022-07-30T10:19:32;2.90;;;2.17;;
30681;SDS011;17439;48.092;11.842;2022-07-30T10:22:30;4.07;;;2.00;;
30681;SDS011;17439;48.092;11.842;2022-07-30T10:25:28;2.88;;;2.00;;
30681;SDS011;17439;48.092;11.842;2022-07-30T10:28:33;3.97;;;2.15;;
30681;SDS011;17439;48.092;11.842;2022-07-30T10:31:04;3.63;;;1.70;;
30681;SDS011;17439;48.092;11.842;2022-07-30T10:33:52;4.10;;;2.33;;
30681;SDS011;17439;48.092;11.842;2022-07-30T10:36:19;7.15;;;2.00;;
30681;SDS011;17439;48.092;11.842;2022-07-30T10:38:49;3.63;;;1.98;;
30681;SDS011;17439;48.092;11.842;2022-07-30T10:41:28;4.70;;;1.70;;
30681;SDS011;17439;48.092;11.842;2022-07-30T10:47:13;4.30;;;1.70;;
30681;SDS011;17439;48.092;11.842;2022-07-30T10:49:52;2.53;;;1.88;;
30681;SDS011;17439;48.092;11.842;2022-07-30T10:55:22;1.98;;;1.50;;
30681;SDS011;17439;48.092;11.842;2022-07-30T10:58:08;2.40;;;1.40;;
30681;SDS011;17439;48.092;11.842;2022-07-30T11:03:19;7.22;;;1.63;;
30681;SDS011;17439;48.092;11.842;2022-07-30T11:05:48;3.10;;;1.70;;
30681;SDS011;17439;48.092;11.842;2022-07-30T11:08:29;1.73;;;1.25;;
30681;SDS011;17439;48.092;11.842;2022-07-30T11:11:05;1.65;;;1.55;;
30681;SDS011;17439;48.092;11.842;2022-07-30T11:14:08;2.67;;;1.30;;
30681;SDS011;17439;48.092;11.842;2022-07-30T11:19:12;2.57;;;1.47;;
30681;SDS011;17439;48.092;11.842;2022-07-30T11:22:21;2.58;;;1.30;;
30681;SDS011;17439;48.092;11.842;2022-07-30T11:24:48;2.20;;;0.98;;
30681;SDS011;17439;48.092;11.842;2022-07-30T11:30:03;1.88;;;1.50;;
30681;SDS011;17439;48.092;11.842;2022-07-30T11:32:43;3.72;;;1.98;;
30681;SDS011;17439;48.092;11.842;2022-07-30T11:40:22;1.88;;;1.42;;
30681;SDS011;17439;48.092;11.842;2022-07-30T11:43:13;1.65;;;1.10;;
30681;SDS011;17439;48.092;11.842;2022-07-30T11:48:42;1.90;;;1.60;;
30681;SDS011;17439;48.092;11.842;2022-07-30T11:51:21;2.15;;;1.40;;
30681;SDS011;17439;48.092;11.842;2022-07-30T11:53:58;1.50;;;1.40;;
30681;SDS011;17439;48.092;11.842;2022-07-30T11:56:27;2.38;;;1.45;;
30681;SDS011;17439;48.092;11.842;2022-07-30T11:59:03;3.45;;;1.45;;
30681;SDS011;17439;48.092;11.842;2022-07-30T12:01:32;4.18;;;1.20;;
30681;SDS011;17439;48.092;11.842;2022-07-30T12:04:01;3.63;;;1.67;;
30681;SDS011;17439;48.092;11.842;2022-07-30T12:06:29;3.47;;;1.83;;
30681;SDS011;17439;48.092;11.842;2022-07-30T12:08:56;3.50;;;1.37;;
30681;SDS011;17439;48.092;11.842;2022-07-30T12:11:24;4.00;;;1.23;;
30681;SDS011;17439;48.092;11.842;2022-07-30T12:13:57;3.47;;;1.73;;
30681;SDS011;17439;48.092;11.842;2022-07-30T12:16:25;3.05;;;1.35;;
30681;SDS011;17439;48.092;11.842;2022-07-30T12:21:20;1.53;;;1.43;;
30681;SDS011;17439;48.092;11.842;2022-07-30T12:23:54;6.70;;;1.30;;
30681;SDS011;17439;48.092;11.842;2022-07-30T12:26:29;2.42;;;1.10;;
30681;SDS011;17439;48.092;11.842;2022-07-30T12:28:58;1.65;;;1.40;;
30681;SDS011;17439;48.092;11.842;2022-07-30T12:31:26;2.78;;;1.73;;
30681;SDS011;17439;48.092;11.842;2022-07-30T12:33:53;12.63;;;2.27;;
30681;SDS011;17439;48.092;11.842;2022-07-30T12:36:29;2.50;;;1.67;;
30681;SDS011;17439;48.092;11.842;2022-07-30T12:38:58;2.83;;;1.27;;
30681;SDS011;17439;48.092;11.842;2022-07-30T12:41:41;3.10;;;1.35;;
30681;SDS011;17439;48.092;11.842;2022-07-30T12:44:10;4.80;;;1.58;;
30681;SDS011;17439;48.092;11.842;2022-07-30T12:46:39;5.38;;;1.88;;
30681;SDS011;17439;48.092;11.842;2022-07-30T12:49:06;8.52;;;1.45;;
30681;SDS011;17439;48.092;11.842;2022-07-30T12:51:49;1.80;;;1.35;;
30681;SDS011;17439;48.092;11.842;2022-07-30T12:54:25;3.17;;;0.90;;
30681;SDS011;17439;48.092;11.842;2022-07-30T12:59:25;4.35;;;1.20;;
30681;SDS011;17439;48.092;11.842;2022-07-30T13:01:53;2.90;;;1.15;;
30681;SDS011;17439;48.092;11.842;2022-07-30T13:04:20;2.63;;;1.13;;
30681;SDS011;17439;48.092;11.842;2022-07-30T13:09:33;1.20;;;1.02;;
30681;SDS011;17439;48.092;11.842;2022-07-30T13:12:00;1.52;;;0.93;;
30681;SDS011;17439;48.092;11.842;2022-07-30T13:14:27;2.65;;;1.02;;
30681;SDS011;17439;48.092;11.842;2022-07-30T13:16:54;2.60;;;0.90;;
30681;SDS011;17439;48.092;11.842;2022-07-30T13:19:21;1.58;;;1.20;;
30681;SDS011;17439;48.092;11.842;2022-07-30T13:21:48;1.42;;;1.23;;
30681;SDS011;17439;48.092;11.842;2022-07-30T13:24:15;4.07;;;1.15;;
30681;SDS011;17439;48.092;11.842;2022-07-30T13:26:43;2.38;;;0.88;;
30681;SDS011;17439;48.092;11.842;2022-07-30T13:29:10;0.80;;;0.80;;
30681;SDS011;17439;48.092;11.842;2022-07-30T13:31:38;3.78;;;1.58;;
30681;SDS011;17439;48.092;11.842;2022-07-30T13:34:09;2.33;;;1.15;;
30681;SDS011;17439;48.092;11.842;2022-07-30T13:36:38;1.70;;;0.98;;
30681;SDS011;17439;48.092;11.842;2022-07-30T13:39:05;1.65;;;1.05;;
30681;SDS011;17439;48.092;11.842;2022-07-30T13:41:32;3.95;;;1.10;;
30681;SDS011;17439;48.092;11.842;2022-07-30T13:44:00;4.32;;;1.00;;
30681;SDS011;17439;48.092;11.842;2022-07-30T13:46:26;2.25;;;1.58;;
30681;SDS011;17439;48.092;11.842;2022-07-30T13:48:53;2.00;;;1.38;;
30681;SDS011;17439;48.092;11.842;2022-07-30T13:51:20;3.60;;;1.80;;
30681;SDS011;17439;48.092;11.842;2022-07-30T13:53:47;3.22;;;1.30;;
30681;SDS011;17439;48.092;11.842;2022-07-30T13:56:13;3.28;;;1.38;;
30681;SDS011;17439;48.092;11.842;2022-07-30T13:58:40;8.57;;;1.00;;
30681;SDS011;17439;48.092;11.842;2022-07-30T14:01:08;2.33;;;1.20;;
30681;SDS011;17439;48.092;11.842;2022-07-30T14:03:43;4.45;;;1.85;;
30681;SDS011;17439;48.092;11.842;2022-07-30T14:06:15;1.23;;;0.90;;
30681;SDS011;17439;48.092;11.842;2022-07-30T14:08:42;1.87;;;1.10;;
30681;SDS011;17439;48.092;11.842;2022-07-30T14:11:09;2.58;;;1.00;;
30681;SDS011;17439;48.092;11.842;2022-07-30T14:13:35;2.25;;;1.40;;
30681;SDS011;17439;48.092;11.842;2022-07-30T14:16:02;2.55;;;1.67;;
30681;SDS011;17439;48.092;11.842;2022-07-30T14:18:29;1.83;;;1.23;;
30681;SDS011;17439;48.092;11.842;2022-07-30T14:20:56;2.58;;;1.13;;
30681;SDS011;17439;48.092;11.842;2022-07-30T14:23:22;3.05;;;1.23;;
30681;SDS011;17439;48.092;11.842;2022-07-30T14:25:49;1.40;;;1.30;;
30681;SDS011;17439;48.092;11.842;2022-07-30T14:28:16;2.42;;;1.30;;
30681;SDS011;17439;48.092;11.842;2022-07-30T14:30:42;2.08;;;1.25;;
30681;SDS011;17439;48.092;11.842;2022-07-30T14:33:09;0.90;;;0.90;;
30681;SDS011;17439;48.092;11.842;2022-07-30T14:35:36;2.08;;;1.20;;
30681;SDS011;17439;48.092;11.842;2022-07-30T14:38:02;1.30;;;1.20;;
30681;SDS011;17439;48.092;11.842;2022-07-30T14:40:29;2.58;;;1.77;;
30681;SDS011;17439;48.092;11.842;2022-07-30T14:42:56;2.28;;;1.30;;
30681;SDS011;17439;48.092;11.842;2022-07-30T14:45:23;1.90;;;1.00;;
30681;SDS011;17439;48.092;11.842;2022-07-30T14:47:50;2.25;;;1.42;;
30681;SDS011;17439;48.092;11.842;2022-07-30T14:50:17;3.53;;;1.17;;
30681;SDS011;17439;48.092;11.842;2022-07-30T14:52:44;2.10;;;1.20;;
30681;SDS011;17439;48.092;11.842;2022-07-30T14:55:11;3.47;;;1.38;;
30681;SDS011;17439;48.092;11.842;2022-07-30T14:57:37;5.40;;;1.38;;
30681;SDS011;17439;48.092;11.842;2022-07-30T15:00:04;3.28;;;1.48;;
30681;SDS011;17439;48.092;11.842;2022-07-30T15:02:33;1.65;;;1.00;;
30681;SDS011;17439;48.092;11.842;2022-07-30T15:04:59;4.32;;;1.00;;
30681;SDS011;17439;48.092;11.842;2022-07-30T15:07:26;2.67;;;1.33;;
30681;SDS011;17439;48.092;11.842;2022-07-30T15:09:53;1.45;;;1.30;;
30681;SDS011;17439;48.092;11.842;2022-07-30T15:12:19;2.78;;;1.67;;
30681;SDS011;17439;48.092;11.842;2022-07-30T15:14:52;1.02;;;0.95;;
30681;SDS011;17439;48.092;11.842;2022-07-30T15:17:19;5.27;;;1.00;;
30681;SDS011;17439;48.092;11.842;2022-07-30T15:19:51;2.17;;;1.15;;
30681;SDS011;17439;48.092;11.842;2022-07-30T15:22:18;1.25;;;1.02;;
30681;SDS011;17439;48.092;11.842;2022-07-30T15:24:45;2.92;;;1.10;;
30681;SDS011;17439;48.092;11.842;2022-07-30T15:27:12;1.20;;;1.10;;
30681;SDS011;17439;48.092;11.842;2022-07-30T15:29:39;3.60;;;1.25;;
30681;SDS011;17439;48.092;11.842;2022-07-30T15:32:06;0.80;;;0.80;;
30681;SDS011;17439;48.092;11.842;2022-07-30T15:34:33;3.97;;;1.03;;
30681;SDS011;17439;48.092;11.842;2022-07-30T15:37:00;1.10;;;0.90;;
30681;SDS011;17439;48.092;11.842;2022-07-30T15:39:28;2.22;;;1.40;;
30681;SDS011;17439;48.092;11.842;2022-07-30T15:41:55;1.92;;;1.15;;
30681;SDS011;17439;48.092;11.842;2022-07-30T15:44:22;1.20;;;1.00;;
30681;SDS011;17439;48.092;11.842;2022-07-30T15:46:49;1.53;;;0.87;;
30681;SDS011;17439;48.092;11.842;2022-07-30T15:49:16;4.95;;;1.10;;
30681;SDS011;17439;48.092;11.842;2022-07-30T15:51:42;2.53;;;0.90;;
30681;SDS011;17439;48.092;11.842;2022-07-30T15:54:09;5.50;;;1.40;;
30681;SDS011;17439;48.092;11.842;2022-07-30T15:56:36;1.58;;;1.10;;
30681;SDS011;17439;48.092;11.842;2022-07-30T15:59:03;1.88;;;1.10;;
30681;SDS011;17439;48.092;11.842;2022-07-30T16:01:30;1.50;;;0.93;;